sensor_id;sensor_type;location;lat;lon;timestamp;pressure;altitude;pressure_sealevel;temperature;humidity
19831;BME280;10076;52.008;4.708;2023-02-18T00:01:59;102298.78;;;11.73;100.00
19831;BME280;10076;52.008;4.708;2023-02-18T00:04:25;102291.94;;;11.69;100.00
19831;BME280;10076;52.008;4.708;2023-02-18T00:06:50;102284.56;;;11.59;100.00
19831;BME280;10076;52.008;4.708;2023-02-18T00:09:15;102288.72;;;11.46;100.00
19831;BME280;10076;52.008;4.708;2023-02-18T00:11:41;102281.00;;;11.41;100.00
19831;BME280;10076;52.008;4.708;2023-02-18T00:14:11;102287.78;;;11.30;100.00
19831;BME280;10076;52.008;4.708;2023-02-18T00:16:37;102278.75;;;11.17;100.00
19831;BME280;10076;52.008;4.708;2023-02-18T00:19:05;102279.06;;;11.28;100.00
19831;BME280;10076;52.008;4.708;2023-02-18T00:21:32;102273.16;;;11.23;100.00
19831;BME280;10076;52.008;4.708;2023-02-18T00:23:58;102286.00;;;11.13;100.00
19831;BME280;10076;52.008;4.708;2023-02-18T00:26:24;102285.28;;;11.10;100.00
19831;BME280;10076;52.008;4.708;2023-02-18T00:28:50;102277.53;;;11.07;100.00
19831;BME280;10076;52.008;4.708;2023-02-18T00:31:36;102272.38;;;11.21;100.00
19831;BME280;10076;52.008;4.708;2023-02-18T00:34:03;102267.56;;;11.12;100.00
19831;BME280;10076;52.008;4.708;2023-02-18T00:36:29;102269.00;;;11.00;100.00
19831;BME280;10076;52.008;4.708;2023-02-18T00:38:57;102258.84;;;11.10;100.00
19831;BME280;10076;52.008;4.708;2023-02-18T00:41:25;102259.31;;;11.01;100.00
19831;BME280;10076;52.008;4.708;2023-02-18T00:43:51;102255.13;;;11.14;100.00
19831;BME280;10076;52.008;4.708;2023-02-18T00:46:17;102250.00;;;11.11;100.00
19831;BME280;10076;52.008;4.708;2023-02-18T00:48:42;102259.16;;;11.04;100.00
19831;BME280;10076;52.008;4.708;2023-02-18T00:51:07;102259.31;;;11.01;100.00
19831;BME280;10076;52.008;4.708;2023-02-18T00:53:33;102250.22;;;11.06;100.00
19831;BME280;10076;52.008;4.708;2023-02-18T00:55:59;102251.00;;;11.08;100.00
19831;BME280;10076;52.008;4.708;2023-02-18T00:58:24;102258.09;;;11.08;100.00
19831;BME280;10076;52.008;4.708;2023-02-18T01:00:50;102242.06;;;11.11;100.00
19831;BME280;10076;52.008;4.708;2023-02-18T01:03:15;102249.44;;;11.04;100.00
19831;BME280;10076;52.008;4.708;2023-02-18T01:05:41;102245.41;;;11.14;100.00
19831;BME280;10076;52.008;4.708;2023-02-18T01:08:08;102250.47;;;11.02;100.00
19831;BME280;10076;52.008;4.708;2023-02-18T01:10:35;102255.56;;;11.05;100.00
19831;BME280;10076;52.008;4.708;2023-02-18T01:13:01;102254.13;;;11.16;100.00
19831;BME280;10076;52.008;4.708;2023-02-18T01:15:29;102241.34;;;11.24;100.00
19831;BME280;10076;52.008;4.708;2023-02-18T01:17:54;102241.91;;;11.14;100.00
19831;BME280;10076;52.008;4.708;2023-02-18T01:20:20;102240.59;;;11.05;100.00
19831;BME280;10076;52.008;4.708;2023-02-18T01:22:45;102230.03;;;11.05;100.00
19831;BME280;10076;52.008;4.708;2023-02-18T01:25:11;102224.81;;;11.38;100.00
19831;BME280;10076;52.008;4.708;2023-02-18T01:27:37;102232.41;;;11.44;100.00
19831;BME280;10076;52.008;4.708;2023-02-18T01:30:03;102235.53;;;11.35;100.00
19831;BME280;10076;52.008;4.708;2023-02-18T01:32:29;102222.59;;;11.46;100.00
19831;BME280;10076;52.008;4.708;2023-02-18T01:34:54;102220.97;;;11.43;100.00
19831;BME280;10076;52.008;4.708;2023-02-18T01:37:20;102223.59;;;11.43;100.00
19831;BME280;10076;52.008;4.708;2023-02-18T01:39:45;102224.56;;;11.25;100.00
19831;BME280;10076;52.008;4.708;2023-02-18T01:42:22;102219.03;;;11.30;100.00
19831;BME280;10076;52.008;4.708;2023-02-18T01:44:48;102219.81;;;11.49;100.00
19831;BME280;10076;52.008;4.708;2023-02-18T01:47:15;102217.72;;;11.38;100.00
19831;BME280;10076;52.008;4.708;2023-02-18T01:49:42;102222.16;;;11.38;100.00
19831;BME280;10076;52.008;4.708;2023-02-18T01:52:15;102207.38;;;11.51;100.00
19831;BME280;10076;52.008;4.708;2023-02-18T01:54:47;102207.97;;;11.39;100.00
19831;BME280;10076;52.008;4.708;2023-02-18T01:57:34;102195.22;;;11.47;100.00
19831;BME280;10076;52.008;4.708;2023-02-18T02:00:07;102197.25;;;11.42;100.00
19831;BME280;10076;52.008;4.708;2023-02-18T02:02:38;102198.59;;;11.33;100.00
19831;BME280;10076;52.008;4.708;2023-02-18T02:05:04;102193.44;;;11.30;100.00
19831;BME280;10076;52.008;4.708;2023-02-18T02:07:30;102189.31;;;11.42;100.00
19831;BME280;10076;52.008;4.708;2023-02-18T02:09:56;102186.66;;;11.42;100.00
19831;BME280;10076;52.008;4.708;2023-02-18T02:12:42;102176.88;;;11.44;100.00
19831;BME280;10076;52.008;4.708;2023-02-18T02:15:41;102174.84;;;11.49;100.00
19831;BME280;10076;52.008;4.708;2023-02-18T02:35:20;102131.56;;;11.67;100.00
19831;BME280;10076;52.008;4.708;2023-02-18T02:38:07;102117.31;;;11.37;100.00
19831;BME280;10076;52.008;4.708;2023-02-18T02:41:03;102112.44;;;11.45;100.00
19831;BME280;10076;52.008;4.708;2023-02-18T02:43:46;102108.50;;;11.36;100.00
19831;BME280;10076;52.008;4.708;2023-02-18T02:46:22;102099.97;;;11.31;100.00
19831;BME280;10076;52.008;4.708;2023-02-18T02:48:58;102090.63;;;11.24;100.00
19831;BME280;10076;52.008;4.708;2023-02-18T02:51:41;102092.13;;;11.30;100.00
19831;BME280;10076;52.008;4.708;2023-02-18T02:54:14;102082.00;;;11.21;100.00
19831;BME280;10076;52.008;4.708;2023-02-18T02:56:39;102079.41;;;11.36;100.00
19831;BME280;10076;52.008;4.708;2023-02-18T02:59:08;102076.63;;;11.39;100.00
19831;BME280;10076;52.008;4.708;2023-02-18T03:01:46;102070.50;;;11.22;100.00
19831;BME280;10076;52.008;4.708;2023-02-18T03:04:29;102076.56;;;11.24;100.00
19831;BME280;10076;52.008;4.708;2023-02-18T03:10:10;102078.41;;;11.06;100.00
19831;BME280;10076;52.008;4.708;2023-02-18T03:12:51;102070.66;;;11.03;100.00
19831;BME280;10076;52.008;4.708;2023-02-18T03:15:54;102063.22;;;11.10;100.00
19831;BME280;10076;52.008;4.708;2023-02-18T03:18:25;102068.19;;;11.16;100.00
19831;BME280;10076;52.008;4.708;2023-02-18T03:20:58;102069.31;;;11.12;100.00
19831;BME280;10076;52.008;4.708;2023-02-18T03:23:32;102059.56;;;11.12;100.00
19831;BME280;10076;52.008;4.708;2023-02-18T03:26:00;102062.84;;;11.00;100.00
19831;BME280;10076;52.008;4.708;2023-02-18T03:28:29;102054.22;;;11.14;100.00
19831;BME280;10076;52.008;4.708;2023-02-18T03:30:59;102044.16;;;11.20;100.00
19831;BME280;10076;52.008;4.708;2023-02-18T03:33:35;102035.06;;;11.26;100.00
19831;BME280;10076;52.008;4.708;2023-02-18T03:36:01;102021.97;;;11.23;100.00
19831;BME280;10076;52.008;4.708;2023-02-18T03:38:41;102025.75;;;11.19;100.00
19831;BME280;10076;52.008;4.708;2023-02-18T03:41:08;102025.16;;;11.14;100.00
19831;BME280;10076;52.008;4.708;2023-02-18T03:43:34;102019.75;;;11.15;100.00
19831;BME280;10076;52.008;4.708;2023-02-18T03:46:00;102015.50;;;11.13;100.00
19831;BME280;10076;52.008;4.708;2023-02-18T03:48:26;102016.00;;;11.19;100.00
19831;BME280;10076;52.008;4.708;2023-02-18T03:50:51;102013.69;;;11.13;100.00
19831;BME280;10076;52.008;4.708;2023-02-18T03:53:16;102017.03;;;11.17;100.00
19831;BME280;10076;52.008;4.708;2023-02-18T03:55:42;101998.28;;;11.21;100.00
19831;BME280;10076;52.008;4.708;2023-02-18T03:58:07;101994.16;;;11.16;100.00
19831;BME280;10076;52.008;4.708;2023-02-18T04:00:33;102008.25;;;11.16;100.00
19831;BME280;10076;52.008;4.708;2023-02-18T04:02:58;102000.75;;;11.09;100.00
19831;BME280;10076;52.008;4.708;2023-02-18T04:05:24;101996.72;;;11.02;100.00
19831;BME280;10076;52.008;4.708;2023-02-18T04:07:49;101997.75;;;11.15;100.00
19831;BME280;10076;52.008;4.708;2023-02-18T04:10:14;102003.22;;;11.12;100.00
19831;BME280;10076;52.008;4.708;2023-02-18T04:12:40;102004.31;;;11.08;100.00
19831;BME280;10076;52.008;4.708;2023-02-18T04:15:05;101992.97;;;11.06;100.00
19831;BME280;10076;52.008;4.708;2023-02-18T04:17:32;101990.09;;;11.10;100.00
19831;BME280;10076;52.008;4.708;2023-02-18T04:19:57;101982.91;;;11.12;100.00
19831;BME280;10076;52.008;4.708;2023-02-18T04:22:23;101995.63;;;11.06;100.00
19831;BME280;10076;52.008;4.708;2023-02-18T04:24:48;101981.72;;;11.18;100.00
19831;BME280;10076;52.008;4.708;2023-02-18T04:27:13;101982.44;;;11.37;100.00
19831;BME280;10076;52.008;4.708;2023-02-18T04:29:39;101979.53;;;11.26;100.00
19831;BME280;10076;52.008;4.708;2023-02-18T04:32:04;101990.94;;;11.26;100.00
19831;BME280;10076;52.008;4.708;2023-02-18T04:34:29;101989.13;;;11.27;100.00
19831;BME280;10076;52.008;4.708;2023-02-18T04:36:54;101983.03;;;11.26;100.00
19831;BME280;10076;52.008;4.708;2023-02-18T04:39:21;101977.47;;;11.31;100.00
19831;BME280;10076;52.008;4.708;2023-02-18T04:41:46;101969.97;;;11.39;100.00
19831;BME280;10076;52.008;4.708;2023-02-18T04:44:12;101982.44;;;11.37;100.00
19831;BME280;10076;52.008;4.708;2023-02-18T04:46:37;101964.50;;;11.26;100.00
19831;BME280;10076;52.008;4.708;2023-02-18T04:49:02;101957.94;;;11.33;100.00
19831;BME280;10076;52.008;4.708;2023-02-18T04:51:28;101963.25;;;11.33;100.00
19831;BME280;10076;52.008;4.708;2023-02-18T04:53:53;101953.78;;;11.14;100.00
19831;BME280;10076;52.008;4.708;2023-02-18T04:56:18;101948.84;;;11.23;100.00
19831;BME280;10076;52.008;4.708;2023-02-18T04:58:44;101944.53;;;11.21;100.00
19831;BME280;10076;52.008;4.708;2023-02-18T05:01:10;101951.63;;;11.20;100.00
19831;BME280;10076;52.008;4.708;2023-02-18T05:03:35;101951.53;;;11.22;100.00
19831;BME280;10076;52.008;4.708;2023-02-18T05:06:00;101961.63;;;11.31;100.00
19831;BME280;10076;52.008;4.708;2023-02-18T05:08:26;101948.66;;;11.26;100.00
19831;BME280;10076;52.008;4.708;2023-02-18T05:10:51;101951.78;;;11.33;100.00
19831;BME280;10076;52.008;4.708;2023-02-18T05:13:16;101957.06;;;11.33;100.00
19831;BME280;10076;52.008;4.708;2023-02-18T05:15:42;101951.09;;;11.29;100.00
19831;BME280;10076;52.008;4.708;2023-02-18T05:18:07;101940.28;;;11.34;100.00
19831;BME280;10076;52.008;4.708;2023-02-18T05:20:33;101941.66;;;11.41;100.00
19831;BME280;10076;52.008;4.708;2023-02-18T05:22:59;101957.69;;;11.38;100.00
19831;BME280;10076;52.008;4.708;2023-02-18T05:25:24;101944.72;;;11.49;100.00
19831;BME280;10076;52.008;4.708;2023-02-18T05:27:49;101935.31;;;11.43;100.00
19831;BME280;10076;52.008;4.708;2023-02-18T05:30:15;101932.94;;;11.54;100.00
19831;BME280;10076;52.008;4.708;2023-02-18T05:32:40;101929.88;;;11.46;100.00
19831;BME280;10076;52.008;4.708;2023-02-18T05:35:06;101925.69;;;11.42;100.00
19831;BME280;10076;52.008;4.708;2023-02-18T05:37:31;101919.31;;;11.46;100.00
19831;BME280;10076;52.008;4.708;2023-02-18T05:39:56;101918.44;;;11.46;100.00
19831;BME280;10076;52.008;4.708;2023-02-18T05:42:22;101926.13;;;11.50;100.00
19831;BME280;10076;52.008;4.708;2023-02-18T05:44:47;101931.41;;;11.50;100.00
19831;BME280;10076;52.008;4.708;2023-02-18T05:47:13;101918.97;;;11.52;100.00
19831;BME280;10076;52.008;4.708;2023-02-18T05:49:40;101916.94;;;11.57;100.00
19831;BME280;10076;52.008;4.708;2023-02-18T05:52:06;101918.53;;;11.60;100.00
19831;BME280;10076;52.008;4.708;2023-02-18T05:54:33;101932.00;;;11.71;100.00
19831;BME280;10076;52.008;4.708;2023-02-18T05:56:59;101917.16;;;11.68;100.00
19831;BME280;10076;52.008;4.708;2023-02-18T05:59:24;101906.16;;;11.60;100.00
19831;BME280;10076;52.008;4.708;2023-02-18T06:01:49;101906.41;;;11.56;100.00
19831;BME280;10076;52.008;4.708;2023-02-18T06:04:15;101928.69;;;11.52;100.00
19831;BME280;10076;52.008;4.708;2023-02-18T06:06:41;101921.84;;;11.48;100.00
19831;BME280;10076;52.008;4.708;2023-02-18T06:09:07;101906.13;;;11.45;100.00
19831;BME280;10076;52.008;4.708;2023-02-18T06:11:33;101907.44;;;11.38;100.00
19831;BME280;10076;52.008;4.708;2023-02-18T06:13:59;101913.16;;;11.30;100.00
19831;BME280;10076;52.008;4.708;2023-02-18T06:16:25;101892.00;;;11.30;100.00
19831;BME280;10076;52.008;4.708;2023-02-18T06:18:50;101904.38;;;11.30;100.00
19831;BME280;10076;52.008;4.708;2023-02-18T06:21:16;101897.81;;;11.37;100.00
19831;BME280;10076;52.008;4.708;2023-02-18T06:23:41;101901.63;;;11.31;100.00
19831;BME280;10076;52.008;4.708;2023-02-18T06:26:06;101909.22;;;11.37;100.00
19831;BME280;10076;52.008;4.708;2023-02-18T06:28:32;101895.75;;;11.42;100.00
19831;BME280;10076;52.008;4.708;2023-02-18T06:30:57;101892.34;;;11.40;100.00
19831;BME280;10076;52.008;4.708;2023-02-18T06:33:22;101895.31;;;11.34;100.00
19831;BME280;10076;52.008;4.708;2023-02-18T06:35:53;101896.94;;;11.36;100.00
19831;BME280;10076;52.008;4.708;2023-02-18T06:38:19;101899.66;;;11.50;100.00
19831;BME280;10076;52.008;4.708;2023-02-18T06:40:46;101896.53;;;11.44;100.00
19831;BME280;10076;52.008;4.708;2023-02-18T06:43:11;101895.81;;;11.56;100.00
19831;BME280;10076;52.008;4.708;2023-02-18T06:45:38;101894.53;;;11.47;100.00
19831;BME280;10076;52.008;4.708;2023-02-18T06:48:03;101897.81;;;11.37;100.00
19831;BME280;10076;52.008;4.708;2023-02-18T06:50:28;101901.38;;;11.36;100.00
19831;BME280;10076;52.008;4.708;2023-02-18T06:52:54;101900.50;;;11.35;100.00
19831;BME280;10076;52.008;4.708;2023-02-18T06:55:19;101895.75;;;11.42;100.00
19831;BME280;10076;52.008;4.708;2023-02-18T06:57:44;101900.16;;;11.41;100.00
19831;BME280;10076;52.008;4.708;2023-02-18T07:00:10;101893.72;;;11.31;100.00
19831;BME280;10076;52.008;4.708;2023-02-18T07:02:35;101899.69;;;11.35;100.00
19831;BME280;10076;52.008;4.708;2023-02-18T07:05:00;101883.31;;;11.28;100.00
19831;BME280;10076;52.008;4.708;2023-02-18T07:07:26;101882.44;;;11.28;100.00
19831;BME280;10076;52.008;4.708;2023-02-18T07:09:51;101896.78;;;11.39;100.00
19831;BME280;10076;52.008;4.708;2023-02-18T07:12:16;101889.00;;;11.36;100.00
19831;BME280;10076;52.008;4.708;2023-02-18T07:14:42;101873.59;;;11.29;100.00
19831;BME280;10076;52.008;4.708;2023-02-18T07:17:07;101879.72;;;11.29;100.00
19831;BME280;10076;52.008;4.708;2023-02-18T07:19:32;101876.22;;;11.29;100.00
19831;BME280;10076;52.008;4.708;2023-02-18T07:21:57;101875.19;;;11.31;100.00
19831;BME280;10076;52.008;4.708;2023-02-18T07:24:23;101868.38;;;11.27;100.00
19831;BME280;10076;52.008;4.708;2023-02-18T07:26:48;101880.94;;;11.24;100.00
19831;BME280;10076;52.008;4.708;2023-02-18T07:29:14;101885.53;;;11.36;100.00
19831;BME280;10076;52.008;4.708;2023-02-18T07:31:39;101865.84;;;11.26;100.00
19831;BME280;10076;52.008;4.708;2023-02-18T07:34:04;101875.63;;;11.39;100.00
19831;BME280;10076;52.008;4.708;2023-02-18T07:36:30;101863.09;;;11.43;100.00
19831;BME280;10076;52.008;4.708;2023-02-18T07:38:55;101862.16;;;11.28;100.00
19831;BME280;10076;52.008;4.708;2023-02-18T07:41:22;101868.88;;;11.34;100.00
19831;BME280;10076;52.008;4.708;2023-02-18T07:43:47;101854.50;;;11.24;100.00
19831;BME280;10076;52.008;4.708;2023-02-18T07:46:13;101858.53;;;11.45;100.00
19831;BME280;10076;52.008;4.708;2023-02-18T07:48:38;101869.66;;;11.36;100.00
19831;BME280;10076;52.008;4.708;2023-02-18T07:51:05;101854.63;;;11.36;100.00
19831;BME280;10076;52.008;4.708;2023-02-18T07:53:31;101863.78;;;11.31;100.00
19831;BME280;10076;52.008;4.708;2023-02-18T07:56:00;101858.22;;;11.35;100.00
19831;BME280;10076;52.008;4.708;2023-02-18T07:58:28;101871.69;;;11.46;100.00
19831;BME280;10076;52.008;4.708;2023-02-18T08:00:54;101877.91;;;11.45;100.00
19831;BME280;10076;52.008;4.708;2023-02-18T08:03:21;101876.31;;;11.27;100.00
19831;BME280;10076;52.008;4.708;2023-02-18T08:05:48;101893.91;;;11.28;100.00
19831;BME280;10076;52.008;4.708;2023-02-18T08:08:16;101879.66;;;11.15;100.00
19831;BME280;10076;52.008;4.708;2023-02-18T08:10:42;101857.56;;;11.16;100.00
19831;BME280;10076;52.008;4.708;2023-02-18T08:13:08;101876.91;;;11.17;100.00
19831;BME280;10076;52.008;4.708;2023-02-18T08:15:33;101888.66;;;11.27;100.00
19831;BME280;10076;52.008;4.708;2023-02-18T08:17:58;101867.81;;;11.22;100.00
19831;BME280;10076;52.008;4.708;2023-02-18T08:20:24;101871.72;;;11.31;100.00
19831;BME280;10076;52.008;4.708;2023-02-18T08:22:50;101870.69;;;11.33;100.00
19831;BME280;10076;52.008;4.708;2023-02-18T08:25:15;101878.19;;;11.25;100.00
19831;BME280;10076;52.008;4.708;2023-02-18T08:27:40;101881.72;;;11.10;100.00
19831;BME280;10076;52.008;4.708;2023-02-18T08:30:06;101872.22;;;11.06;100.00
19831;BME280;10076;52.008;4.708;2023-02-18T08:32:32;101886.31;;;11.07;100.00
19831;BME280;10076;52.008;4.708;2023-02-18T08:34:57;101881.72;;;10.95;100.00
19831;BME280;10076;52.008;4.708;2023-02-18T08:37:22;101893.06;;;10.97;100.00
19831;BME280;10076;52.008;4.708;2023-02-18T08:39:48;101890.91;;;10.88;100.00
19831;BME280;10076;52.008;4.708;2023-02-18T08:42:13;101882.63;;;10.94;100.00
19831;BME280;10076;52.008;4.708;2023-02-18T08:44:39;101864.41;;;11.05;100.00
19831;BME280;10076;52.008;4.708;2023-02-18T08:47:04;101865.94;;;11.09;100.00
19831;BME280;10076;52.008;4.708;2023-02-18T08:49:29;101879.91;;;11.26;100.00
19831;BME280;10076;52.008;4.708;2023-02-18T08:51:55;101889.19;;;11.33;100.00
19831;BME280;10076;52.008;4.708;2023-02-18T08:54:20;101884.00;;;11.32;100.00
19831;BME280;10076;52.008;4.708;2023-02-18T08:56:45;101888.31;;;11.33;100.00
19831;BME280;10076;52.008;4.708;2023-02-18T08:59:11;101905.41;;;11.43;100.00
19831;BME280;10076;52.008;4.708;2023-02-18T09:01:36;101889.59;;;11.41;100.00
19831;BME280;10076;52.008;4.708;2023-02-18T09:04:02;101893.50;;;11.50;100.00
19831;BME280;10076;52.008;4.708;2023-02-18T09:06:27;101891.16;;;11.61;100.00
19831;BME280;10076;52.008;4.708;2023-02-18T09:08:52;101910.09;;;11.53;100.00
19831;BME280;10076;52.008;4.708;2023-02-18T09:11:19;101895.75;;;11.42;100.00
19831;BME280;10076;52.008;4.708;2023-02-18T09:13:45;101907.53;;;11.52;100.00
19831;BME280;10076;52.008;4.708;2023-02-18T09:16:15;101910.59;;;11.44;100.00
19831;BME280;10076;52.008;4.708;2023-02-18T09:18:44;101904.28;;;11.47;100.00
19831;BME280;10076;52.008;4.708;2023-02-18T09:21:11;101919.56;;;11.57;100.00
19831;BME280;10076;52.008;4.708;2023-02-18T09:23:38;101913.69;;;11.52;100.00
19831;BME280;10076;52.008;4.708;2023-02-18T09:26:09;101923.94;;;11.58;100.00
19831;BME280;10076;52.008;4.708;2023-02-18T09:28:36;101901.88;;;11.58;100.00
19831;BME280;10076;52.008;4.708;2023-02-18T09:31:06;101924.22;;;11.68;100.00
19831;BME280;10076;52.008;4.708;2023-02-18T09:33:36;101925.06;;;11.83;100.00
19831;BME280;10076;52.008;4.708;2023-02-18T09:36:02;101921.94;;;11.62;100.00
19831;BME280;10076;52.008;4.708;2023-02-18T09:38:27;101924.84;;;11.73;100.00
19831;BME280;10076;52.008;4.708;2023-02-18T09:40:53;101922.44;;;11.68;100.00
19831;BME280;10076;52.008;4.708;2023-02-18T09:43:32;101916.22;;;11.69;100.00
19831;BME280;10076;52.008;4.708;2023-02-18T09:45:59;101918.09;;;11.67;100.00
19831;BME280;10076;52.008;4.708;2023-02-18T09:48:28;101918.06;;;11.82;100.00
19831;BME280;10076;52.008;4.708;2023-02-18T09:50:55;101933.56;;;11.88;100.00
19831;BME280;10076;52.008;4.708;2023-02-18T09:53:22;101932.03;;;11.84;100.00
19831;BME280;10076;52.008;4.708;2023-02-18T09:55:50;101944.53;;;11.82;100.00
19831;BME280;10076;52.008;4.708;2023-02-18T09:58:33;101946.16;;;11.99;100.00
19831;BME280;10076;52.008;4.708;2023-02-18T10:01:21;101942.88;;;11.95;100.00
19831;BME280;10076;52.008;4.708;2023-02-18T10:03:49;101945.31;;;11.98;100.00
19831;BME280;10076;52.008;4.708;2023-02-18T10:06:21;101957.78;;;11.96;100.00
19831;BME280;10076;52.008;4.708;2023-02-18T10:08:49;101937.16;;;11.87;100.00
19831;BME280;10076;52.008;4.708;2023-02-18T10:11:22;101950.06;;;11.78;100.00
19831;BME280;10076;52.008;4.708;2023-02-18T10:13:48;101945.44;;;11.81;100.00
19831;BME280;10076;52.008;4.708;2023-02-18T10:16:17;101959.47;;;11.83;100.00
19831;BME280;10076;52.008;4.708;2023-02-18T10:18:45;101960.94;;;12.03;100.00
19831;BME280;10076;52.008;4.708;2023-02-18T10:21:39;101958.47;;;12.00;100.00
19831;BME280;10076;52.008;4.708;2023-02-18T10:24:13;101959.28;;;11.86;100.00
19831;BME280;10076;52.008;4.708;2023-02-18T10:26:42;101967.69;;;11.93;100.00
19831;BME280;10076;52.008;4.708;2023-02-18T10:29:19;101961.56;;;11.92;100.00
19831;BME280;10076;52.008;4.708;2023-02-18T10:32:03;101966.13;;;12.04;100.00
19831;BME280;10076;52.008;4.708;2023-02-18T10:37:02;101979.91;;;12.25;100.00
19831;BME280;10076;52.008;4.708;2023-02-18T10:46:01;101986.97;;;12.10;100.00
19831;BME280;10076;52.008;4.708;2023-02-18T10:50:44;101984.63;;;12.20;100.00
19831;BME280;10076;52.008;4.708;2023-02-18T10:53:29;101986.16;;;12.24;100.00
19831;BME280;10076;52.008;4.708;2023-02-18T10:55:55;101981.41;;;12.15;100.00
19831;BME280;10076;52.008;4.708;2023-02-18T10:58:35;101988.13;;;12.20;100.00
19831;BME280;10076;52.008;4.708;2023-02-18T11:01:06;101984.16;;;12.27;100.00
19831;BME280;10076;52.008;4.708;2023-02-18T11:03:46;101983.44;;;12.39;100.00
19831;BME280;10076;52.008;4.708;2023-02-18T11:06:20;101973.63;;;12.41;100.00
19831;BME280;10076;52.008;4.708;2023-02-18T11:08:46;101969.00;;;12.58;100.00
19831;BME280;10076;52.008;4.708;2023-02-18T11:11:19;101981.56;;;12.41;100.00
19831;BME280;10076;52.008;4.708;2023-02-18T11:13:52;101974.94;;;12.48;100.00
19831;BME280;10076;52.008;4.708;2023-02-18T11:16:20;101972.94;;;12.38;100.00
19831;BME280;10076;52.008;4.708;2023-02-18T11:18:46;101977.22;;;12.40;100.00
19831;BME280;10076;52.008;4.708;2023-02-18T11:21:31;101969.72;;;12.46;100.00
19831;BME280;10076;52.008;4.708;2023-02-18T11:24:08;101985.34;;;12.51;100.00
19831;BME280;10076;52.008;4.708;2023-02-18T11:26:35;101976.47;;;12.52;100.00
19831;BME280;10076;52.008;4.708;2023-02-18T11:29:14;101983.06;;;12.45;100.00
19831;BME280;10076;52.008;4.708;2023-02-18T11:31:46;101981.88;;;12.50;100.00
19831;BME280;10076;52.008;4.708;2023-02-18T11:34:20;101967.56;;;12.39;100.00
19831;BME280;10076;52.008;4.708;2023-02-18T11:36:47;101970.41;;;12.50;100.00
19831;BME280;10076;52.008;4.708;2023-02-18T11:39:17;101988.00;;;12.51;100.00
19831;BME280;10076;52.008;4.708;2023-02-18T11:41:47;101979.50;;;12.60;100.00
19831;BME280;10076;52.008;4.708;2023-02-18T11:44:37;101974.97;;;12.62;100.00
19831;BME280;10076;52.008;4.708;2023-02-18T11:49:37;101968.91;;;12.74;100.00
19831;BME280;10076;52.008;4.708;2023-02-18T11:52:24;101999.88;;;12.73;100.00
19831;BME280;10076;52.008;4.708;2023-02-18T11:55:07;101974.59;;;12.82;100.00
19831;BME280;10076;52.008;4.708;2023-02-18T11:57:34;101972.63;;;12.85;100.00
19831;BME280;10076;52.008;4.708;2023-02-18T12:00:03;101967.69;;;12.79;100.00
19831;BME280;10076;52.008;4.708;2023-02-18T12:02:34;101974.31;;;12.72;100.00
19831;BME280;10076;52.008;4.708;2023-02-18T12:05:10;101967.09;;;12.74;100.00
19831;BME280;10076;52.008;4.708;2023-02-18T12:07:41;101969.00;;;12.72;100.00
19831;BME280;10076;52.008;4.708;2023-02-18T12:10:27;101975.75;;;12.92;100.00
19831;BME280;10076;52.008;4.708;2023-02-18T12:16:06;101951.94;;;13.58;100.00
19831;BME280;10076;52.008;4.708;2023-02-18T12:18:43;101956.97;;;14.40;100.00
19831;BME280;10076;52.008;4.708;2023-02-18T12:21:31;101959.81;;;15.24;100.00
19831;BME280;10076;52.008;4.708;2023-02-18T12:32:56;101967.78;;;15.24;100.00
19831;BME280;10076;52.008;4.708;2023-02-18T12:43:30;101952.22;;;16.00;100.00
19831;BME280;10076;52.008;4.708;2023-02-18T12:51:28;101954.81;;;16.47;100.00
19831;BME280;10076;52.008;4.708;2023-02-18T13:05:52;101942.75;;;14.53;100.00
19831;BME280;10076;52.008;4.708;2023-02-18T13:08:45;101951.03;;;14.49;100.00
19831;BME280;10076;52.008;4.708;2023-02-18T13:11:22;101949.38;;;14.22;100.00
19831;BME280;10076;52.008;4.708;2023-02-18T13:14:03;101968.88;;;14.97;100.00
19831;BME280;10076;52.008;4.708;2023-02-18T13:16:33;101959.34;;;15.18;100.00
19831;BME280;10076;52.008;4.708;2023-02-18T13:19:13;101957.56;;;15.06;100.00
19831;BME280;10076;52.008;4.708;2023-02-18T13:21:42;101968.44;;;14.41;100.00
19831;BME280;10076;52.008;4.708;2023-02-18T13:24:13;101956.81;;;14.17;100.00
19831;BME280;10076;52.008;4.708;2023-02-18T13:26:43;101958.34;;;14.21;100.00
19831;BME280;10076;52.008;4.708;2023-02-18T13:29:34;101958.13;;;14.36;100.00
19831;BME280;10076;52.008;4.708;2023-02-18T13:32:23;101968.03;;;14.71;100.00
19831;BME280;10076;52.008;4.708;2023-02-18T13:34:59;101957.03;;;15.01;100.00
19831;BME280;10076;52.008;4.708;2023-02-18T13:40:26;101960.78;;;15.23;100.00
19831;BME280;10076;52.008;4.708;2023-02-18T13:42:57;101952.84;;;15.34;100.00
19831;BME280;10076;52.008;4.708;2023-02-18T13:45:39;101972.38;;;15.58;100.00
19831;BME280;10076;52.008;4.708;2023-02-18T13:48:21;101965.28;;;15.92;100.00
19831;BME280;10076;52.008;4.708;2023-02-18T13:50:51;101952.03;;;16.14;100.00
19831;BME280;10076;52.008;4.708;2023-02-18T13:53:22;101956.53;;;15.90;100.00
19831;BME280;10076;52.008;4.708;2023-02-18T13:55:54;101955.25;;;15.73;100.00
19831;BME280;10076;52.008;4.708;2023-02-18T13:58:24;101960.16;;;15.89;100.00
19831;BME280;10076;52.008;4.708;2023-02-18T14:00:59;101953.84;;;16.03;100.00
19831;BME280;10076;52.008;4.708;2023-02-18T14:06:33;101966.78;;;16.07;100.00
19831;BME280;10076;52.008;4.708;2023-02-18T14:11:47;101959.59;;;15.15;100.00